createdAt,value
2023-05-08T00:00:03.998Z,49.66
2023-05-08T00:02:37.776Z,49.56
2023-05-08T00:05:10.723Z,49.59
2023-05-08T00:07:43.780Z,49.78
2023-05-08T00:10:16.692Z,49.95
2023-05-08T00:12:49.546Z,49.75
2023-05-08T00:15:22.530Z,50.06
2023-05-08T00:17:55.347Z,50.23
2023-05-08T00:20:29.323Z,50.15
2023-05-08T00:23:01.972Z,49.82
2023-05-08T00:25:34.972Z,49.66
2023-05-08T00:28:07.756Z,50.26
2023-05-08T00:30:41.177Z,50.17
2023-05-08T00:33:14.085Z,49.92
2023-05-08T00:35:47.234Z,49.88
2023-05-08T00:38:20.204Z,50.16
2023-05-08T00:40:52.974Z,50.54
2023-05-08T00:43:27.690Z,50.45
2023-05-08T00:46:02.854Z,50.60
2023-05-08T00:48:37.226Z,50.75
2023-05-08T00:51:11.731Z,50.94
2023-05-08T00:53:45.811Z,50.53
2023-05-08T00:56:19.058Z,50.59
2023-05-08T00:58:52.275Z,50.74
2023-05-08T01:01:25.774Z,51.09
2023-05-08T01:03:58.612Z,51.31
2023-05-08T01:06:32.074Z,51.66
2023-05-08T01:09:05.867Z,51.42
2023-05-08T01:11:43.805Z,51.54
2023-05-08T01:14:50.879Z,51.31
2023-05-08T01:17:39.373Z,51.41
2023-05-08T01:20:41.122Z,51.33
2023-05-08T01:23:47.602Z,51.33
2023-05-08T01:26:58.984Z,51.75
2023-05-08T01:29:59.147Z,51.22
2023-05-08T01:32:44.542Z,50.83
2023-05-08T01:35:27.784Z,51.19
2023-05-08T01:38:21.744Z,51.48
2023-05-08T01:41:04.766Z,51.56
2023-05-08T01:44:00.513Z,51.60
2023-05-08T01:46:35.245Z,51.32
2023-05-08T01:49:14.145Z,51.47
2023-05-08T01:52:00.542Z,51.34
2023-05-08T01:54:38.197Z,51.22
2023-05-08T01:57:12.457Z,51.50
2023-05-08T01:59:44.402Z,51.59
2023-05-08T02:02:17.559Z,51.73
2023-05-08T02:04:53.341Z,51.76
2023-05-08T02:07:27.157Z,51.88
2023-05-08T02:10:00.629Z,51.40
2023-05-08T02:12:37.550Z,51.47
2023-05-08T02:15:13.182Z,51.64
2023-05-08T02:17:48.505Z,51.68
2023-05-08T02:20:22.809Z,51.73
2023-05-08T02:22:54.717Z,51.71
2023-05-08T02:25:28.218Z,51.67
2023-05-08T02:28:01.071Z,51.48
2023-05-08T02:30:34.077Z,51.77
2023-05-08T02:33:09.643Z,51.97
2023-05-08T02:35:45.310Z,51.78
2023-05-08T02:38:21.138Z,51.75
2023-05-08T02:40:57.947Z,51.64
2023-05-08T02:43:31.005Z,51.71
2023-05-08T02:46:32.812Z,51.91
2023-05-08T02:49:16.608Z,51.81
2023-05-08T02:51:55.835Z,52.42
2023-05-08T02:55:01.352Z,52.56
2023-05-08T02:57:45.148Z,52.08
2023-05-08T03:00:30.366Z,52.22
2023-05-08T03:03:23.275Z,52.33
2023-05-08T03:06:01.088Z,52.40
2023-05-08T03:08:36.441Z,52.58
2023-05-08T03:11:12.908Z,52.45
2023-05-08T03:13:47.885Z,52.91
2023-05-08T03:16:23.620Z,52.50
2023-05-08T03:19:02.982Z,52.67
2023-05-08T03:21:37.601Z,52.80
2023-05-08T03:24:11.803Z,52.41
2023-05-08T03:26:45.278Z,52.53
2023-05-08T03:29:19.374Z,52.64
2023-05-08T03:31:53.815Z,52.63
2023-05-08T03:34:26.997Z,52.73
2023-05-08T03:37:00.159Z,52.79
2023-05-08T03:39:35.268Z,52.87
2023-05-08T03:42:08.471Z,52.38
2023-05-08T03:44:41.756Z,52.60
2023-05-08T03:47:15.253Z,52.75
2023-05-08T03:49:49.688Z,52.83
2023-05-08T03:52:23.133Z,53.05
2023-05-08T03:54:56.070Z,53.36
2023-05-08T03:57:33.538Z,53.48
2023-05-08T04:00:23.270Z,53.33
2023-05-08T04:03:06.336Z,53.38
2023-05-08T04:05:44.328Z,53.48
2023-05-08T04:08:33.245Z,53.47
2023-05-08T04:11:28.997Z,53.53
2023-05-08T04:14:06.755Z,53.44
2023-05-08T04:16:43.552Z,53.77
2023-05-08T04:19:21.645Z,54.20
2023-05-08T04:21:58.342Z,54.16
2023-05-08T04:24:33.024Z,54.50
2023-05-08T04:27:06.889Z,54.37
2023-05-08T04:29:39.979Z,54.53
2023-05-08T04:32:14.300Z,54.48
2023-05-08T04:34:47.722Z,54.73
2023-05-08T04:37:34.617Z,54.63
2023-05-08T04:40:10.264Z,55.15
2023-05-08T04:42:45.694Z,55.19
2023-05-08T04:45:19.810Z,55.16
2023-05-08T04:47:52.661Z,54.81
2023-05-08T04:50:26.378Z,55.40
2023-05-08T04:52:59.500Z,55.40
2023-05-08T04:55:32.774Z,55.08
2023-05-08T04:58:05.881Z,55.05
2023-05-08T05:00:38.907Z,55.62
2023-05-08T05:03:11.930Z,55.91
2023-05-08T05:05:45.016Z,55.71
2023-05-08T05:08:19.117Z,55.93
2023-05-08T05:10:51.900Z,56.64
2023-05-08T05:13:24.915Z,56.77
2023-05-08T05:15:59.443Z,56.50
2023-05-08T05:18:33.721Z,56.54
2023-05-08T05:21:06.769Z,56.32
2023-05-08T05:23:39.890Z,56.98
2023-05-08T05:26:12.980Z,56.60
2023-05-08T05:28:46.601Z,56.70
2023-05-08T05:31:19.990Z,56.66
2023-05-08T05:33:52.895Z,57.15
2023-05-08T05:36:25.973Z,56.62
2023-05-08T05:38:58.769Z,56.58
2023-05-08T05:41:31.684Z,56.59
2023-05-08T05:44:04.718Z,56.60
2023-05-08T05:46:38.306Z,56.17
2023-05-08T05:49:12.580Z,56.13
2023-05-08T05:51:45.736Z,56.24
2023-05-08T05:54:20.010Z,56.73
2023-05-08T05:56:52.906Z,56.06
2023-05-08T05:59:25.980Z,56.74
2023-05-08T06:01:59.232Z,56.28
2023-05-08T06:04:32.475Z,56.63
2023-05-08T06:07:05.721Z,56.54
2023-05-08T06:09:38.658Z,55.87
2023-05-08T06:12:12.413Z,56.04
2023-05-08T06:14:45.086Z,56.50
2023-05-08T06:17:17.922Z,56.55
2023-05-08T06:19:52.830Z,56.94
2023-05-08T06:22:27.104Z,56.75
2023-05-08T06:25:00.150Z,56.70
2023-05-08T06:27:33.283Z,56.56
2023-05-08T06:30:10.982Z,57.12
2023-05-08T06:32:44.261Z,57.11
2023-05-08T06:35:20.150Z,57.26
2023-05-08T06:37:52.889Z,57.07
2023-05-08T06:40:26.612Z,56.97
2023-05-08T06:42:59.704Z,57.07
2023-05-08T06:45:32.597Z,57.04
2023-05-08T06:48:05.654Z,57.33
2023-05-08T06:50:43.050Z,57.41
2023-05-08T06:53:15.983Z,57.72
2023-05-08T06:55:49.311Z,58.14
2023-05-08T06:58:22.322Z,57.88
2023-05-08T07:00:55.163Z,57.74
2023-05-08T07:03:28.132Z,57.87
2023-05-08T07:06:01.013Z,57.82
2023-05-08T07:08:33.881Z,57.79
2023-05-08T07:11:09.161Z,57.71
2023-05-08T07:13:43.675Z,57.45
2023-05-08T07:16:17.174Z,57.30
2023-05-08T07:18:50.092Z,57.10
2023-05-08T07:21:22.930Z,56.55
2023-05-08T07:23:56.544Z,56.78
2023-05-08T07:26:29.405Z,56.66
2023-05-08T07:29:02.209Z,56.91
2023-05-08T07:31:35.034Z,56.37
2023-05-08T07:34:07.966Z,56.31
2023-05-08T07:36:40.688Z,56.26
2023-05-08T07:39:13.553Z,56.21
2023-05-08T07:41:49.109Z,56.19
2023-05-08T07:44:21.044Z,56.58
2023-05-08T07:46:54.045Z,56.43
2023-05-08T07:49:27.364Z,56.14
2023-05-08T07:52:00.096Z,55.67
2023-05-08T07:54:33.453Z,55.64
2023-05-08T07:57:06.467Z,55.65
2023-05-08T07:59:39.561Z,55.47
2023-05-08T08:02:12.433Z,54.64
2023-05-08T08:04:46.010Z,54.25
2023-05-08T08:07:18.917Z,54.28
2023-05-08T08:09:51.812Z,54.77
2023-05-08T08:12:24.588Z,54.99
2023-05-08T08:14:57.534Z,55.17
2023-05-08T08:17:30.322Z,54.98
2023-05-08T08:20:03.403Z,54.90
2023-05-08T08:22:37.336Z,54.92
2023-05-08T08:25:11.462Z,55.02
2023-05-08T08:27:43.852Z,54.95
2023-05-08T08:30:17.981Z,54.97
2023-05-08T08:32:51.175Z,55.52
2023-05-08T08:35:25.527Z,54.88
2023-05-08T08:37:58.067Z,54.50
2023-05-08T08:40:30.997Z,54.41
2023-05-08T08:43:04.124Z,54.38
2023-05-08T08:45:38.416Z,53.86
2023-05-08T08:48:16.456Z,54.01
2023-05-08T08:50:50.266Z,54.40
2023-05-08T08:53:28.511Z,54.20
2023-05-08T08:56:02.801Z,53.73
2023-05-08T08:58:47.565Z,54.26
2023-05-08T09:01:21.900Z,53.85
2023-05-08T09:03:54.965Z,54.02
2023-05-08T09:06:29.282Z,53.87
2023-05-08T09:09:02.133Z,54.27
2023-05-08T09:11:35.972Z,54.48
2023-05-08T09:14:09.795Z,54.67
2023-05-08T09:16:42.823Z,54.46
2023-05-08T09:19:17.314Z,55.07
2023-05-08T09:21:51.475Z,54.53
2023-05-08T09:24:24.836Z,54.35
2023-05-08T09:26:57.532Z,54.49
2023-05-08T09:29:30.384Z,55.56
2023-05-08T09:32:04.404Z,54.73
2023-05-08T09:34:37.308Z,53.85
2023-05-08T09:37:14.390Z,54.00
2023-05-08T09:39:48.051Z,54.55
2023-05-08T09:42:21.420Z,53.72
2023-05-08T09:44:55.837Z,54.15
2023-05-08T09:47:27.721Z,54.28
2023-05-08T09:50:09.469Z,54.14
2023-05-08T09:52:47.813Z,54.35
2023-05-08T09:55:20.847Z,53.81
2023-05-08T09:57:59.274Z,53.81
2023-05-08T10:00:32.379Z,53.00
2023-05-08T10:03:06.288Z,53.29
2023-05-08T10:05:40.993Z,52.82
2023-05-08T10:08:27.073Z,53.18
2023-05-08T10:11:17.242Z,51.83
2023-05-08T10:13:50.622Z,51.88
2023-05-08T10:16:25.198Z,52.52
2023-05-08T10:19:03.491Z,52.35
2023-05-08T10:21:38.703Z,51.93
2023-05-08T10:24:16.767Z,51.92
2023-05-08T10:27:06.949Z,51.23
2023-05-08T10:29:35.948Z,51.04
2023-05-08T10:32:11.615Z,51.58
2023-05-08T10:34:45.621Z,52.04
2023-05-08T10:37:20.008Z,51.80
2023-05-08T10:39:53.421Z,51.68
2023-05-08T10:42:27.183Z,52.15
2023-05-08T10:45:00.118Z,52.61
2023-05-08T10:47:54.801Z,53.01
2023-05-08T10:50:44.386Z,53.67
2023-05-08T10:53:42.295Z,53.36
2023-05-08T10:56:15.666Z,54.18
2023-05-08T10:58:48.468Z,54.98
2023-05-08T11:01:21.974Z,55.64
2023-05-08T11:03:58.756Z,55.77
2023-05-08T11:06:50.644Z,55.83
2023-05-08T11:09:30.822Z,56.19
2023-05-08T11:12:26.433Z,56.81
2023-05-08T11:15:10.533Z,56.77
2023-05-08T11:17:45.559Z,57.91
2023-05-08T11:20:18.377Z,58.50
2023-05-08T11:22:51.491Z,59.23
2023-05-08T11:25:29.162Z,58.20
2023-05-08T11:28:10.985Z,58.22
2023-05-08T11:30:45.802Z,59.52
2023-05-08T11:33:19.341Z,60.66
2023-05-08T11:36:20.305Z,61.31
2023-05-08T11:39:13.230Z,61.47
2023-05-08T11:41:47.762Z,62.30
2023-05-08T11:44:25.815Z,61.60
2023-05-08T11:47:00.160Z,61.95
2023-05-08T11:49:32.531Z,61.87
2023-05-08T11:52:06.556Z,62.01
2023-05-08T11:54:38.687Z,61.30
2023-05-08T11:57:11.693Z,61.56
2023-05-08T11:59:45.210Z,61.26
2023-05-08T12:02:18.208Z,60.69
2023-05-08T12:04:51.232Z,61.16
2023-05-08T12:07:24.134Z,60.97
2023-05-08T12:09:57.087Z,61.58
2023-05-08T12:12:45.663Z,60.86
2023-05-08T12:15:19.023Z,60.77
2023-05-08T12:18:03.158Z,61.07
2023-05-08T12:20:36.283Z,61.29
2023-05-08T12:23:10.458Z,62.19
2023-05-08T12:25:42.492Z,61.68
2023-05-08T12:28:15.523Z,61.71
2023-05-08T12:30:49.031Z,61.82
2023-05-08T12:33:22.766Z,62.47
2023-05-08T12:35:57.109Z,61.55
2023-05-08T12:38:30.806Z,60.97
2023-05-08T12:41:06.875Z,61.69
2023-05-08T12:43:40.172Z,61.69
2023-05-08T12:46:14.914Z,61.90
2023-05-08T12:48:48.017Z,61.72
2023-05-08T12:51:21.074Z,61.13
2023-05-08T12:53:53.981Z,61.05
2023-05-08T12:56:26.927Z,61.49
2023-05-08T12:59:01.632Z,60.64
2023-05-08T13:01:35.843Z,60.94
2023-05-08T13:04:12.076Z,60.24
2023-05-08T13:06:46.356Z,60.88
2023-05-08T13:09:23.630Z,60.68
2023-05-08T13:11:56.827Z,60.38
2023-05-08T13:14:30.278Z,60.84
2023-05-08T13:17:03.171Z,61.07
2023-05-08T13:19:36.287Z,60.47
2023-05-08T13:22:09.214Z,61.03
2023-05-08T13:24:42.044Z,60.24
2023-05-08T13:27:15.665Z,59.24
2023-05-08T13:29:48.696Z,59.48
2023-05-08T13:32:21.533Z,60.17
2023-05-08T13:34:57.699Z,60.18
2023-05-08T13:37:29.270Z,60.33
2023-05-08T13:40:02.358Z,59.96
2023-05-08T13:42:35.771Z,59.78
2023-05-08T13:45:12.369Z,59.45
2023-05-08T13:47:47.037Z,59.29
2023-05-08T13:50:22.058Z,59.18
2023-05-08T13:52:55.362Z,58.08
2023-05-08T13:55:28.345Z,58.56
2023-05-08T13:58:01.358Z,58.56
2023-05-08T14:00:34.916Z,59.38
2023-05-08T14:03:07.848Z,60.15
2023-05-08T14:05:40.978Z,58.94
2023-05-08T14:08:13.843Z,57.83
2023-05-08T14:10:47.010Z,58.25
2023-05-08T14:13:20.536Z,57.76
2023-05-08T14:15:53.430Z,57.28
2023-05-08T14:18:26.384Z,56.22
2023-05-08T14:20:59.181Z,56.84
2023-05-08T14:23:32.417Z,57.43
2023-05-08T14:26:06.142Z,57.25
2023-05-08T14:28:39.377Z,57.48
2023-05-08T14:31:12.250Z,57.67
2023-05-08T14:33:45.052Z,58.10
2023-05-08T14:36:18.311Z,56.79
2023-05-08T14:38:51.818Z,56.89
2023-05-08T14:41:26.925Z,56.59
2023-05-08T14:44:00.313Z,56.65
2023-05-08T14:46:33.837Z,56.34
2023-05-08T14:49:06.906Z,56.26
2023-05-08T14:51:40.340Z,55.48
2023-05-08T14:54:13.302Z,55.81
2023-05-08T14:56:47.685Z,56.33
2023-05-08T14:59:20.830Z,56.92
2023-05-08T15:01:53.781Z,56.69
2023-05-08T15:04:26.722Z,56.78
2023-05-08T15:06:59.760Z,56.54
2023-05-08T15:09:32.916Z,56.61
2023-05-08T15:12:05.991Z,56.63
2023-05-08T15:14:39.522Z,56.74
2023-05-08T15:17:12.283Z,56.88
2023-05-08T15:19:46.363Z,57.18
2023-05-08T15:22:19.369Z,57.09
2023-05-08T15:24:52.311Z,57.33
2023-05-08T15:27:25.401Z,56.94
2023-05-08T15:29:58.346Z,56.87
2023-05-08T15:32:31.565Z,56.80
2023-05-08T15:35:05.061Z,57.20
2023-05-08T15:37:38.781Z,56.55
2023-05-08T15:40:12.519Z,56.43
2023-05-08T15:42:45.425Z,56.45
2023-05-08T15:45:18.499Z,55.08
2023-05-08T15:47:51.409Z,54.12
2023-05-08T15:50:24.410Z,53.79
2023-05-08T15:52:57.259Z,53.62
2023-05-08T15:55:30.280Z,53.23
2023-05-08T15:58:03.504Z,53.49
2023-05-08T16:00:44.517Z,54.19
2023-05-08T16:03:11.974Z,54.17
2023-05-08T16:05:45.127Z,54.39
2023-05-08T16:08:18.706Z,54.40
2023-05-08T16:10:51.723Z,55.02
2023-05-08T16:13:24.620Z,55.18
2023-05-08T16:16:06.481Z,55.35
2023-05-08T16:18:39.555Z,55.45
2023-05-08T16:21:13.498Z,55.15
2023-05-08T16:23:46.457Z,55.06
2023-05-08T16:26:20.491Z,55.25
2023-05-08T16:28:53.423Z,54.83
2023-05-08T16:31:26.413Z,54.96
2023-05-08T16:33:59.612Z,55.42
2023-05-08T16:36:32.599Z,55.17
2023-05-08T16:39:05.450Z,55.13
2023-05-08T16:41:38.753Z,55.24
2023-05-08T16:44:11.496Z,55.30
2023-05-08T16:46:44.744Z,55.12
2023-05-08T16:49:17.658Z,55.28
2023-05-08T16:51:50.479Z,55.32
2023-05-08T16:54:23.450Z,55.51
2023-05-08T16:56:56.396Z,55.41
2023-05-08T16:59:29.248Z,54.94
2023-05-08T17:02:02.307Z,55.41
2023-05-08T17:04:35.638Z,54.83
2023-05-08T17:07:08.561Z,54.78
2023-05-08T17:09:41.785Z,54.87
2023-05-08T17:12:14.998Z,55.35
2023-05-08T17:14:48.258Z,55.80
2023-05-08T17:17:21.153Z,56.13
2023-05-08T17:19:54.020Z,55.67
2023-05-08T17:22:26.910Z,53.25
2023-05-08T17:24:59.725Z,53.78
2023-05-08T17:27:34.321Z,53.22
2023-05-08T17:30:10.807Z,53.66
2023-05-08T17:32:44.552Z,53.46
2023-05-08T17:35:17.625Z,53.80
2023-05-08T17:37:51.402Z,54.44
2023-05-08T17:40:26.293Z,54.30
2023-05-08T17:43:00.649Z,54.32
2023-05-08T17:45:34.426Z,54.04
2023-05-08T17:48:07.725Z,54.11
2023-05-08T17:50:42.372Z,53.83
2023-05-08T17:53:15.053Z,53.77
2023-05-08T17:55:48.662Z,53.87
2023-05-08T17:58:21.526Z,53.65
2023-05-08T18:00:55.540Z,53.37
2023-05-08T18:03:28.483Z,53.13
2023-05-08T18:06:01.663Z,53.28
2023-05-08T18:08:36.095Z,53.42
2023-05-08T18:11:10.804Z,53.62
2023-05-08T18:13:44.626Z,53.84
2023-05-08T18:16:21.401Z,54.25
2023-05-08T18:18:54.241Z,54.68
2023-05-08T18:21:28.659Z,55.24
2023-05-08T18:24:01.635Z,55.23
2023-05-08T18:26:34.625Z,56.42
2023-05-08T18:29:07.759Z,57.10
2023-05-08T18:31:40.980Z,57.98
2023-05-08T18:34:14.072Z,59.59
2023-05-08T18:36:47.146Z,59.51
2023-05-08T18:39:20.149Z,60.11
2023-05-08T18:41:53.158Z,61.03
2023-05-08T18:44:26.131Z,61.92
2023-05-08T18:46:58.996Z,63.01
2023-05-08T18:49:32.084Z,63.91
2023-05-08T18:52:05.542Z,64.88
2023-05-08T18:54:38.765Z,65.81
2023-05-08T18:57:11.849Z,67.22
2023-05-08T18:59:44.801Z,67.79
2023-05-08T19:02:17.604Z,68.71
2023-05-08T19:04:50.304Z,69.46
2023-05-08T19:07:23.142Z,70.05
2023-05-08T19:09:57.678Z,70.84
2023-05-08T19:12:29.782Z,71.43
2023-05-08T19:15:02.868Z,72.10
2023-05-08T19:17:38.963Z,72.62
2023-05-08T19:20:13.845Z,73.12
2023-05-08T19:22:47.454Z,73.65
2023-05-08T19:25:20.414Z,74.27
2023-05-08T19:27:53.396Z,75.36
2023-05-08T19:30:26.229Z,75.85
2023-05-08T19:32:59.599Z,76.40
2023-05-08T19:35:32.814Z,76.50
2023-05-08T19:38:05.752Z,76.77
2023-05-08T19:40:52.520Z,77.58
2023-05-08T19:43:13.572Z,78.23
2023-05-08T19:45:47.252Z,78.61
2023-05-08T19:48:20.511Z,79.04
2023-05-08T19:50:55.006Z,79.60
2023-05-08T19:53:26.919Z,79.70
2023-05-08T19:55:59.685Z,80.30
2023-05-08T19:58:33.157Z,80.62
2023-05-08T20:01:06.247Z,81.35
2023-05-08T20:03:39.735Z,81.73
2023-05-08T20:06:13.148Z,82.15
2023-05-08T20:08:46.033Z,82.19
2023-05-08T20:11:19.033Z,82.61
2023-05-08T20:13:52.098Z,82.92
2023-05-08T20:16:25.157Z,83.13
2023-05-08T20:18:58.187Z,83.25
2023-05-08T20:21:32.641Z,83.13
2023-05-08T20:24:05.838Z,82.10
2023-05-08T20:26:39.323Z,80.95
2023-05-08T20:29:12.937Z,80.89
2023-05-08T20:31:45.925Z,79.58
2023-05-08T20:34:21.228Z,78.95
2023-05-08T20:36:53.463Z,78.72
2023-05-08T20:39:26.732Z,78.38
2023-05-08T20:41:59.598Z,78.32
2023-05-08T20:44:32.502Z,77.80
2023-05-08T20:47:05.457Z,77.76
2023-05-08T20:49:38.189Z,77.60
2023-05-08T20:52:11.066Z,77.79
2023-05-08T20:54:45.380Z,77.39
2023-05-08T20:57:18.747Z,77.54
2023-05-08T20:59:51.740Z,77.40
2023-05-08T21:02:24.746Z,77.12
2023-05-08T21:04:57.547Z,77.06
2023-05-08T21:07:30.724Z,76.90
2023-05-08T21:10:03.507Z,76.68
2023-05-08T21:12:36.928Z,76.59
2023-05-08T21:15:10.632Z,76.75
2023-05-08T21:17:44.440Z,76.90
2023-05-08T21:20:17.511Z,77.24
2023-05-08T21:22:50.495Z,77.58
2023-05-08T21:25:23.538Z,77.90
2023-05-08T21:27:56.528Z,77.92
2023-05-08T21:30:29.477Z,78.32
2023-05-08T21:33:03.340Z,78.62
2023-05-08T21:35:36.592Z,79.08
2023-05-08T21:38:11.344Z,79.07
2023-05-08T21:40:45.066Z,79.32
2023-05-08T21:43:17.809Z,80.03
2023-05-08T21:45:50.661Z,80.32
2023-05-08T21:48:24.646Z,80.11
2023-05-08T21:50:57.457Z,80.42
2023-05-08T21:53:30.286Z,80.56
2023-05-08T21:56:03.185Z,80.83
2023-05-08T21:58:36.068Z,81.00
2023-05-08T22:01:09.090Z,81.07
2023-05-08T22:03:42.075Z,81.20
2023-05-08T22:06:14.979Z,81.30
2023-05-08T22:08:47.716Z,81.17
2023-05-08T22:11:20.929Z,81.42
2023-05-08T22:13:53.648Z,81.47
2023-05-08T22:16:26.787Z,81.69
2023-05-08T22:18:59.763Z,81.69
2023-05-08T22:21:33.377Z,81.93
2023-05-08T22:24:06.697Z,82.01
2023-05-08T22:26:40.029Z,81.94
2023-05-08T22:29:12.774Z,82.14
2023-05-08T22:31:47.657Z,82.32
2023-05-08T22:34:20.622Z,82.25
2023-05-08T22:36:53.307Z,82.08
2023-05-08T22:39:26.570Z,81.99
2023-05-08T22:42:00.016Z,81.70
2023-05-08T22:44:32.957Z,81.70
2023-05-08T22:47:06.116Z,81.80
2023-05-08T22:49:41.692Z,81.73
2023-05-08T22:52:14.355Z,81.76
2023-05-08T22:54:47.168Z,82.01
2023-05-08T22:57:19.973Z,82.55
2023-05-08T22:59:52.750Z,82.96
2023-05-08T23:02:25.557Z,83.51
2023-05-08T23:04:58.284Z,83.71
2023-05-08T23:07:31.192Z,83.48
2023-05-08T23:10:04.170Z,83.56
2023-05-08T23:12:37.353Z,83.10
2023-05-08T23:15:11.671Z,82.84
2023-05-08T23:17:45.626Z,82.85
2023-05-08T23:20:18.551Z,82.59
2023-05-08T23:22:51.364Z,82.74
2023-05-08T23:25:24.416Z,82.93
2023-05-08T23:27:57.309Z,82.72
2023-05-08T23:30:30.274Z,82.77
2023-05-08T23:33:03.246Z,82.52
2023-05-08T23:35:36.002Z,82.56
2023-05-08T23:38:08.657Z,82.66
2023-05-08T23:40:41.395Z,82.93
2023-05-08T23:43:14.449Z,82.83
2023-05-08T23:45:47.406Z,82.86
2023-05-08T23:48:20.296Z,83.24
2023-05-08T23:50:53.854Z,83.07
2023-05-08T23:53:26.729Z,83.21
2023-05-08T23:55:59.420Z,82.58
2023-05-08T23:58:33.065Z,82.92
